createdAt,value
2022-10-07T00:00:49.412Z,22.85
2022-10-07T00:01:49.878Z,22.85
2022-10-07T00:02:49.462Z,22.85
2022-10-07T00:03:49.497Z,22.84
2022-10-07T00:04:49.527Z,22.85
2022-10-07T00:05:49.571Z,22.88
2022-10-07T00:06:49.589Z,22.96
2022-10-07T00:07:49.643Z,22.82
2022-10-07T00:08:49.958Z,22.96
2022-10-07T00:09:49.697Z,22.79
2022-10-07T00:10:49.713Z,22.86
2022-10-07T00:11:49.747Z,22.89
2022-10-07T00:12:49.775Z,22.81
2022-10-07T00:13:49.813Z,22.82
2022-10-07T00:14:49.846Z,22.85
2022-10-07T00:15:50.169Z,22.85
2022-10-07T00:16:49.967Z,22.82
2022-10-07T00:17:49.931Z,22.84
2022-10-07T00:18:49.963Z,22.85
2022-10-07T00:19:49.996Z,22.85
2022-10-07T00:20:50.027Z,22.79
2022-10-07T00:21:50.056Z,22.85
2022-10-07T00:22:50.389Z,22.85
2022-10-07T00:23:50.139Z,22.93
2022-10-07T00:24:50.150Z,22.79
2022-10-07T00:25:50.184Z,22.85
2022-10-07T00:26:50.214Z,22.93
2022-10-07T00:27:50.241Z,22.93
2022-10-07T00:28:50.276Z,22.86
2022-10-07T00:29:50.613Z,22.89
2022-10-07T00:30:50.389Z,22.89
2022-10-07T00:31:54.781Z,22.84
2022-10-07T00:32:50.402Z,22.86
2022-10-07T00:33:50.447Z,22.82
2022-10-07T00:34:50.463Z,22.86
2022-10-07T00:35:50.488Z,22.84
2022-10-07T00:36:50.823Z,22.84
2022-10-07T00:37:50.551Z,22.85
2022-10-07T00:38:50.581Z,22.78
2022-10-07T00:39:50.631Z,22.82
2022-10-07T00:40:50.649Z,22.85
2022-10-07T00:41:50.679Z,22.84
2022-10-07T00:42:50.880Z,22.75
2022-10-07T00:43:51.049Z,22.75
2022-10-07T00:44:50.771Z,22.74
2022-10-07T00:45:50.946Z,22.74
2022-10-07T00:46:50.836Z,22.67
2022-10-07T00:47:50.866Z,22.75
2022-10-07T00:48:50.899Z,22.75
2022-10-07T00:49:50.926Z,22.78
2022-10-07T00:50:51.258Z,22.75
2022-10-07T00:51:51.041Z,22.66
2022-10-07T00:52:51.024Z,22.74
2022-10-07T00:53:51.058Z,22.74
2022-10-07T00:54:51.092Z,22.72
2022-10-07T00:55:51.143Z,22.61
2022-10-07T00:56:51.189Z,22.70
2022-10-07T00:57:51.473Z,22.64
2022-10-07T00:58:51.208Z,22.64
2022-10-07T00:59:51.238Z,22.70
2022-10-07T01:00:51.308Z,22.74
2022-10-07T01:01:51.298Z,22.76
2022-10-07T01:02:51.386Z,22.70
2022-10-07T01:03:51.370Z,22.82
2022-10-07T01:04:51.695Z,22.74
2022-10-07T01:05:51.424Z,22.70
2022-10-07T01:06:51.469Z,22.72
2022-10-07T01:07:53.250Z,22.67
2022-10-07T01:08:51.520Z,22.76
2022-10-07T01:09:51.643Z,22.78
2022-10-07T01:10:51.581Z,22.70
2022-10-07T01:11:51.937Z,22.72
2022-10-07T01:12:51.647Z,22.72
2022-10-07T01:13:51.676Z,22.75
2022-10-07T01:14:51.709Z,22.72
2022-10-07T01:15:51.733Z,22.70
2022-10-07T01:16:51.858Z,22.67
2022-10-07T01:17:52.101Z,22.69
2022-10-07T01:18:51.834Z,22.67
2022-10-07T01:19:51.865Z,22.67
2022-10-07T01:20:51.895Z,22.67
2022-10-07T01:21:51.931Z,22.69
2022-10-07T01:22:51.957Z,22.64
2022-10-07T01:23:52.291Z,22.64
2022-10-07T01:24:52.022Z,22.64
2022-10-07T01:25:52.048Z,22.66
2022-10-07T01:26:52.083Z,22.72
2022-10-07T01:27:52.129Z,22.69
2022-10-07T01:28:52.143Z,22.74
2022-10-07T01:29:52.472Z,22.64
2022-10-07T01:30:52.280Z,22.64
2022-10-07T01:31:52.233Z,22.66
2022-10-07T01:32:52.270Z,22.63
2022-10-07T01:33:52.297Z,22.66
2022-10-07T01:34:52.329Z,22.63
2022-10-07T01:35:52.363Z,22.60
2022-10-07T01:36:52.691Z,22.59
2022-10-07T01:37:52.420Z,22.59
2022-10-07T01:38:52.454Z,22.57
2022-10-07T01:39:52.484Z,22.61
2022-10-07T01:40:52.516Z,22.54
2022-10-07T01:41:52.546Z,22.57
2022-10-07T01:43:52.638Z,22.61
2022-10-07T01:44:52.939Z,22.54
2022-10-07T01:45:52.761Z,22.48
2022-10-07T01:46:52.701Z,22.60
2022-10-07T01:47:52.737Z,22.57
2022-10-07T01:48:52.764Z,22.51
2022-10-07T01:49:52.797Z,22.57
2022-10-07T01:50:53.225Z,22.52
2022-10-07T01:51:52.858Z,22.51
2022-10-07T01:52:52.994Z,22.59
2022-10-07T01:53:52.921Z,22.48
2022-10-07T01:54:52.954Z,22.45
2022-10-07T01:55:52.983Z,22.52
2022-10-07T01:56:53.015Z,22.49
2022-10-07T01:57:53.346Z,22.57
2022-10-07T01:58:53.073Z,22.49
2022-10-07T01:59:53.350Z,22.49
2022-10-07T02:00:53.133Z,22.51
2022-10-07T02:01:53.227Z,22.52
2022-10-07T02:02:53.206Z,22.48
2022-10-07T02:03:53.250Z,22.46
2022-10-07T02:04:53.567Z,22.51
2022-10-07T02:05:53.291Z,22.49
2022-10-07T02:06:53.321Z,22.49
2022-10-07T02:07:53.355Z,22.46
2022-10-07T02:08:53.384Z,22.49
2022-10-07T02:09:53.414Z,22.52
2022-10-07T02:10:53.445Z,22.44
2022-10-07T02:11:53.781Z,22.48
2022-10-07T02:12:53.517Z,22.51
2022-10-07T02:13:53.541Z,22.45
2022-10-07T02:14:53.572Z,22.52
2022-10-07T02:15:53.661Z,22.49
2022-10-07T02:16:53.633Z,22.49
2022-10-07T02:17:53.665Z,22.48
2022-10-07T02:18:54.000Z,22.46
2022-10-07T02:19:53.730Z,22.48
2022-10-07T02:20:53.760Z,22.52
2022-10-07T02:21:53.791Z,22.44
2022-10-07T02:22:53.823Z,22.49
2022-10-07T02:23:53.850Z,22.45
2022-10-07T02:24:53.884Z,22.45
2022-10-07T02:25:54.213Z,22.41
2022-10-07T02:26:53.946Z,22.42
2022-10-07T02:27:53.980Z,22.39
2022-10-07T02:29:54.037Z,22.42
2022-10-07T02:30:54.120Z,22.42
2022-10-07T02:31:54.129Z,22.42
2022-10-07T02:32:54.435Z,22.39
2022-10-07T02:33:54.165Z,22.46
2022-10-07T02:34:54.188Z,22.33
2022-10-07T02:35:54.235Z,22.42
2022-10-07T02:36:54.251Z,22.39
2022-10-07T02:37:54.291Z,22.39
2022-10-07T02:38:54.313Z,22.46
2022-10-07T02:39:54.649Z,22.39
2022-10-07T02:40:54.375Z,22.38
2022-10-07T02:41:54.417Z,22.35
2022-10-07T02:42:54.439Z,22.38
2022-10-07T02:43:54.469Z,22.35
2022-10-07T02:44:54.502Z,22.41
2022-10-07T02:45:54.610Z,22.36
2022-10-07T02:46:54.866Z,22.26
2022-10-07T02:47:54.613Z,22.39
2022-10-07T02:48:54.634Z,22.35
2022-10-07T02:49:54.656Z,22.31
2022-10-07T02:50:54.684Z,22.30
2022-10-07T02:51:54.719Z,22.30
2022-10-07T02:52:54.750Z,22.33
2022-10-07T02:53:55.080Z,22.35
2022-10-07T02:54:54.817Z,22.31
2022-10-07T02:55:54.846Z,22.38
2022-10-07T02:56:54.883Z,22.29
2022-10-07T02:57:54.913Z,22.29
2022-10-07T02:58:54.939Z,22.29
2022-10-07T02:59:54.969Z,22.31
2022-10-07T03:00:55.545Z,22.20
2022-10-07T03:01:55.064Z,22.23
2022-10-07T03:02:55.059Z,22.26
2022-10-07T03:03:55.152Z,22.31
2022-10-07T03:04:55.123Z,22.29
2022-10-07T03:05:55.152Z,22.33
2022-10-07T03:06:55.482Z,22.27
2022-10-07T03:07:55.215Z,22.31
2022-10-07T03:08:55.241Z,22.31
2022-10-07T03:09:55.280Z,22.33
2022-10-07T03:10:55.306Z,22.29
2022-10-07T03:11:55.343Z,22.33
2022-10-07T03:12:55.726Z,22.27
2022-10-07T03:13:55.399Z,22.29
2022-10-07T03:14:55.425Z,22.30
2022-10-07T03:15:55.523Z,22.31
2022-10-07T03:16:55.489Z,22.26
2022-10-07T03:17:55.522Z,22.31
2022-10-07T03:18:55.861Z,22.21
2022-10-07T03:19:55.606Z,22.26
2022-10-07T03:20:55.616Z,22.23
2022-10-07T03:21:55.649Z,22.26
2022-10-07T03:22:55.675Z,22.31
2022-10-07T03:23:55.716Z,22.24
2022-10-07T03:24:55.738Z,22.23
2022-10-07T03:25:56.071Z,22.29
2022-10-07T03:26:55.803Z,22.27
2022-10-07T03:27:55.835Z,22.23
2022-10-07T03:28:55.863Z,22.23
2022-10-07T03:29:55.892Z,22.24
2022-10-07T03:30:55.972Z,22.23
2022-10-07T03:31:55.961Z,22.24
2022-10-07T03:32:56.285Z,22.21
2022-10-07T03:33:56.018Z,22.20
2022-10-07T03:34:56.048Z,22.20
2022-10-07T03:35:56.096Z,22.26
2022-10-07T03:36:56.109Z,22.23
2022-10-07T03:37:56.145Z,22.21
2022-10-07T03:38:56.170Z,22.24
2022-10-07T03:39:56.500Z,22.24
2022-10-07T03:40:56.232Z,22.23
2022-10-07T03:41:56.261Z,22.19
2022-10-07T03:42:56.301Z,22.21
2022-10-07T03:43:56.324Z,22.17
2022-10-07T03:44:56.363Z,22.15
2022-10-07T03:45:56.390Z,22.20
2022-10-07T03:46:56.753Z,22.17
2022-10-07T03:47:56.455Z,22.24
2022-10-07T03:48:56.476Z,22.21
2022-10-07T03:49:56.511Z,22.12
2022-10-07T03:50:56.559Z,22.26
2022-10-07T03:52:56.667Z,22.24
2022-10-07T03:53:56.957Z,22.12
2022-10-07T03:54:56.677Z,22.21
2022-10-07T03:55:56.694Z,22.14
2022-10-07T03:56:56.731Z,22.11
2022-10-07T03:57:59.512Z,22.15
2022-10-07T03:58:56.792Z,22.17
2022-10-07T03:59:56.817Z,22.11
2022-10-07T04:00:57.156Z,22.21
2022-10-07T04:01:56.942Z,22.15
2022-10-07T04:02:56.998Z,22.12
2022-10-07T04:03:56.938Z,22.09
2022-10-07T04:04:56.973Z,22.12
2022-10-07T04:05:57.006Z,22.15
2022-10-07T04:06:57.034Z,22.11
2022-10-07T04:07:57.367Z,22.15
2022-10-07T04:08:57.114Z,22.15
2022-10-07T04:09:57.122Z,22.20
2022-10-07T04:10:57.266Z,22.09
2022-10-07T04:11:57.189Z,22.09
2022-10-07T04:12:57.219Z,22.14
2022-10-07T04:13:57.664Z,22.09
2022-10-07T04:14:57.584Z,22.09
2022-10-07T04:15:57.359Z,22.11
2022-10-07T04:16:57.356Z,22.14
2022-10-07T04:17:57.371Z,22.09
2022-10-07T04:18:57.402Z,22.11
2022-10-07T04:19:57.434Z,22.05
2022-10-07T04:20:57.464Z,22.14
2022-10-07T04:21:57.802Z,22.08
2022-10-07T04:22:57.527Z,22.09
2022-10-07T04:23:57.555Z,22.04
2022-10-07T04:24:57.605Z,22.17
2022-10-07T04:25:57.622Z,22.06
2022-10-07T04:26:57.647Z,22.06
2022-10-07T04:27:57.744Z,22.05
2022-10-07T04:28:58.018Z,22.06
2022-10-07T04:29:57.745Z,22.06
2022-10-07T04:30:57.774Z,22.04
2022-10-07T04:31:57.805Z,22.11
2022-10-07T04:32:57.835Z,22.04
2022-10-07T04:33:57.861Z,22.09
2022-10-07T04:34:57.894Z,22.05
2022-10-07T04:35:58.229Z,22.01
2022-10-07T04:36:57.957Z,22.08
2022-10-07T04:37:57.988Z,22.02
2022-10-07T04:38:58.025Z,22.02
2022-10-07T04:40:00.920Z,22.08
2022-10-07T04:40:58.183Z,22.04
2022-10-07T04:41:58.114Z,22.08
2022-10-07T04:42:58.441Z,22.06
2022-10-07T04:43:58.259Z,22.02
2022-10-07T04:44:58.207Z,22.06
2022-10-07T04:45:58.238Z,22.04
2022-10-07T04:46:58.366Z,22.01
2022-10-07T04:47:58.294Z,22.09
2022-10-07T04:48:58.326Z,22.06
2022-10-07T04:49:58.653Z,21.98
2022-10-07T04:50:58.391Z,21.98
2022-10-07T04:51:58.417Z,22.06
2022-10-07T04:52:58.449Z,22.09
2022-10-07T04:53:58.481Z,22.01
2022-10-07T04:54:58.510Z,22.06
2022-10-07T04:55:58.839Z,22.02
2022-10-07T04:56:58.591Z,22.02
2022-10-07T04:57:58.605Z,22.01
2022-10-07T04:58:58.635Z,22.02
2022-10-07T04:59:58.663Z,22.01
2022-10-07T05:00:58.745Z,21.99
2022-10-07T05:01:59.158Z,22.01
2022-10-07T05:02:58.756Z,22.02
2022-10-07T05:03:58.785Z,21.98
2022-10-07T05:04:58.815Z,21.96
2022-10-07T05:06:03.320Z,21.99
2022-10-07T05:06:58.880Z,21.96
2022-10-07T05:07:59.205Z,21.96
2022-10-07T05:08:58.942Z,21.89
2022-10-07T05:09:58.966Z,21.89
2022-10-07T05:10:58.998Z,21.98
2022-10-07T05:11:59.034Z,21.89
2022-10-07T05:12:59.097Z,21.91
2022-10-07T05:13:59.090Z,22.02
2022-10-07T05:14:59.476Z,21.93
2022-10-07T05:15:59.196Z,21.91
2022-10-07T05:16:59.193Z,21.99
2022-10-07T05:17:59.215Z,21.94
2022-10-07T05:18:59.244Z,21.91
2022-10-07T05:19:59.276Z,21.91
2022-10-07T05:20:59.306Z,21.90
2022-10-07T05:21:59.641Z,21.90
2022-10-07T05:22:59.369Z,21.98
2022-10-07T05:23:59.399Z,21.94
2022-10-07T05:24:59.430Z,21.94
2022-10-07T05:25:59.459Z,21.93
2022-10-07T05:26:59.491Z,21.94
2022-10-07T05:27:59.544Z,21.94
2022-10-07T05:28:59.873Z,21.93
2022-10-07T05:29:59.581Z,21.99
2022-10-07T05:30:59.617Z,21.96
2022-10-07T05:32:03.952Z,21.89
2022-10-07T05:32:59.675Z,21.94
2022-10-07T05:33:59.705Z,21.93
2022-10-07T05:34:59.741Z,21.98
2022-10-07T05:36:00.081Z,21.94
2022-10-07T05:36:59.900Z,21.90
2022-10-07T05:37:59.830Z,21.91
2022-10-07T05:38:59.859Z,21.85
2022-10-07T05:39:59.889Z,21.93
2022-10-07T05:40:59.919Z,21.96
2022-10-07T05:41:59.949Z,21.96
2022-10-07T05:43:00.288Z,21.91
2022-10-07T05:44:00.014Z,21.90
2022-10-07T05:45:00.065Z,21.94
2022-10-07T05:46:00.162Z,21.94
2022-10-07T05:47:00.107Z,21.96
2022-10-07T05:48:00.133Z,21.94
2022-10-07T05:49:00.170Z,21.86
2022-10-07T05:50:00.495Z,21.96
2022-10-07T05:51:00.237Z,21.90
2022-10-07T05:52:00.257Z,21.93
2022-10-07T05:53:00.296Z,21.91
2022-10-07T05:54:00.326Z,21.90
2022-10-07T05:55:00.348Z,21.99
2022-10-07T05:56:00.378Z,22.04
2022-10-07T05:57:00.716Z,22.02
2022-10-07T05:58:00.439Z,22.04
2022-10-07T05:59:00.473Z,21.98
2022-10-07T06:00:00.506Z,22.11
2022-10-07T06:01:05.409Z,21.98
2022-10-07T06:02:00.884Z,22.06
2022-10-07T06:03:00.690Z,22.05
2022-10-07T06:04:00.930Z,22.11
2022-10-07T06:05:00.661Z,21.99
2022-10-07T06:06:00.686Z,21.98
2022-10-07T06:07:00.720Z,22.05
2022-10-07T06:08:00.752Z,22.05
2022-10-07T06:09:00.778Z,22.08
2022-10-07T06:10:00.809Z,22.06
2022-10-07T06:11:01.144Z,22.06
2022-10-07T06:12:00.876Z,22.06
2022-10-07T06:13:00.911Z,22.04
2022-10-07T06:14:00.932Z,22.06
2022-10-07T06:15:00.970Z,22.08
2022-10-07T06:16:00.995Z,22.01
2022-10-07T06:17:01.075Z,22.09
2022-10-07T06:18:01.353Z,22.08
2022-10-07T06:19:01.115Z,22.02
2022-10-07T06:20:01.112Z,22.04
2022-10-07T06:21:01.149Z,22.05
2022-10-07T06:22:01.183Z,22.08
2022-10-07T06:23:01.209Z,22.09
2022-10-07T06:24:01.235Z,22.01
2022-10-07T06:25:01.574Z,21.98
2022-10-07T06:26:01.297Z,22.08
2022-10-07T06:27:01.331Z,21.99
2022-10-07T06:28:01.443Z,22.08
2022-10-07T06:29:01.394Z,22.02
2022-10-07T06:30:01.438Z,22.14
2022-10-07T06:31:01.515Z,22.05
2022-10-07T06:32:01.786Z,22.06
2022-10-07T06:33:01.534Z,22.05
2022-10-07T06:34:01.544Z,22.06
2022-10-07T06:35:01.578Z,21.99
2022-10-07T06:36:04.449Z,22.04
2022-10-07T06:37:01.637Z,22.04
2022-10-07T06:38:01.668Z,22.04
2022-10-07T06:39:01.998Z,22.06
2022-10-07T06:40:01.740Z,22.04
2022-10-07T06:41:01.762Z,22.05
2022-10-07T06:42:01.796Z,22.08
2022-10-07T06:43:01.821Z,22.08
2022-10-07T06:44:01.859Z,22.01
2022-10-07T06:45:02.180Z,22.01
2022-10-07T06:46:02.050Z,22.09
2022-10-07T06:47:01.944Z,22.08
2022-10-07T06:48:01.979Z,22.08
2022-10-07T06:49:02.037Z,22.02
2022-10-07T06:50:02.034Z,22.06
2022-10-07T06:51:02.364Z,22.06
2022-10-07T06:52:02.097Z,22.09
2022-10-07T06:53:02.129Z,22.09
2022-10-07T06:54:02.170Z,22.15
2022-10-07T06:55:02.187Z,22.05
2022-10-07T06:56:02.221Z,22.11
2022-10-07T06:57:11.458Z,22.05
2022-10-07T06:58:06.414Z,22.11
2022-10-07T06:59:02.310Z,22.09
2022-10-07T07:00:02.389Z,22.14
2022-10-07T07:01:02.454Z,22.06
2022-10-07T07:02:02.433Z,22.15
2022-10-07T07:03:02.433Z,22.11
2022-10-07T07:04:02.769Z,22.15
2022-10-07T07:06:02.523Z,22.15
2022-10-07T07:07:02.558Z,22.19
2022-10-07T07:08:02.590Z,22.06
2022-10-07T07:09:02.613Z,22.09
2022-10-07T07:10:02.654Z,22.12
2022-10-07T07:11:02.975Z,22.11
2022-10-07T07:12:02.711Z,22.15
2022-10-07T07:13:02.765Z,22.12
2022-10-07T07:14:02.776Z,22.15
2022-10-07T07:15:02.844Z,22.14
2022-10-07T07:16:02.852Z,22.19
2022-10-07T07:17:02.984Z,22.17
2022-10-07T07:18:03.206Z,22.14
2022-10-07T07:19:02.923Z,22.14
2022-10-07T07:20:02.965Z,22.19
2022-10-07T07:21:03.006Z,22.17
2022-10-07T07:22:03.023Z,22.24
2022-10-07T07:23:03.051Z,22.14
2022-10-07T07:24:03.079Z,22.19
2022-10-07T07:25:03.464Z,22.19
2022-10-07T07:26:03.147Z,22.20
2022-10-07T07:27:03.176Z,22.24
2022-10-07T07:28:03.278Z,22.19
2022-10-07T07:29:03.245Z,22.14
2022-10-07T07:30:03.283Z,22.21
2022-10-07T07:31:03.376Z,22.26
2022-10-07T07:32:03.625Z,22.21
2022-10-07T07:33:03.389Z,22.24
2022-10-07T07:34:03.387Z,22.26
2022-10-07T07:35:03.435Z,22.30
2022-10-07T07:36:03.459Z,22.21
2022-10-07T07:37:03.637Z,22.26
2022-10-07T07:38:03.519Z,22.27
2022-10-07T07:39:03.841Z,22.24
2022-10-07T07:40:03.580Z,22.27
2022-10-07T07:41:03.603Z,22.33
2022-10-07T07:42:03.636Z,22.30
2022-10-07T07:43:03.685Z,22.26
2022-10-07T07:44:03.705Z,22.33
2022-10-07T07:45:03.724Z,22.30
2022-10-07T07:46:04.105Z,22.24
2022-10-07T07:47:03.785Z,22.35
2022-10-07T07:48:03.821Z,22.30
2022-10-07T07:49:03.871Z,22.29
2022-10-07T07:50:03.877Z,22.26
2022-10-07T07:51:03.913Z,22.27
2022-10-07T07:52:03.941Z,22.27
2022-10-07T07:53:04.294Z,22.29
2022-10-07T07:54:04.000Z,22.33
2022-10-07T07:55:04.030Z,22.31
2022-10-07T07:56:04.096Z,22.31
2022-10-07T07:57:04.098Z,22.39
2022-10-07T07:58:06.377Z,22.38
2022-10-07T07:59:04.155Z,22.35
2022-10-07T08:00:04.513Z,22.30
2022-10-07T08:01:04.291Z,22.41
2022-10-07T08:02:04.261Z,22.38
2022-10-07T08:03:04.279Z,22.38
2022-10-07T08:05:04.451Z,22.41
2022-10-07T08:06:04.369Z,22.38
2022-10-07T08:07:04.405Z,22.38
2022-10-07T08:08:04.433Z,22.42
2022-10-07T08:09:04.491Z,22.41
2022-10-07T08:10:04.515Z,22.42
2022-10-07T08:11:04.529Z,22.39
2022-10-07T08:12:04.578Z,22.39
2022-10-07T08:13:04.893Z,22.42
2022-10-07T08:14:04.628Z,22.46
2022-10-07T08:15:04.890Z,22.44
2022-10-07T08:16:04.709Z,22.44
2022-10-07T08:17:04.912Z,22.46
2022-10-07T08:18:04.741Z,22.42
2022-10-07T08:19:05.134Z,22.36
2022-10-07T08:20:04.817Z,22.39
2022-10-07T08:21:04.837Z,22.45
2022-10-07T08:22:04.871Z,22.45
2022-10-07T08:23:04.899Z,22.45
2022-10-07T08:24:04.929Z,22.49
2022-10-07T08:25:05.284Z,22.49
2022-10-07T08:26:04.992Z,22.49
2022-10-07T08:27:05.025Z,22.46
2022-10-07T08:28:05.106Z,22.51
2022-10-07T08:29:05.090Z,22.48
2022-10-07T08:30:05.116Z,22.57
2022-10-07T08:31:05.503Z,22.52
2022-10-07T08:32:05.176Z,22.49
2022-10-07T08:33:05.215Z,22.60
2022-10-07T08:34:05.238Z,22.57
2022-10-07T08:35:05.272Z,22.59
2022-10-07T08:36:05.307Z,22.59
2022-10-07T08:37:05.332Z,22.54
2022-10-07T08:38:05.679Z,22.57
2022-10-07T08:39:05.404Z,22.52
2022-10-07T08:40:05.428Z,22.52
2022-10-07T08:41:05.479Z,22.54
2022-10-07T08:42:05.492Z,22.60
2022-10-07T08:43:05.521Z,22.57
2022-10-07T08:44:07.965Z,22.60
2022-10-07T08:45:05.880Z,22.63
2022-10-07T08:46:05.650Z,22.60
2022-10-07T08:47:05.677Z,22.59
2022-10-07T08:48:05.674Z,22.63
2022-10-07T08:49:05.722Z,22.63
2022-10-07T08:50:05.741Z,22.60
2022-10-07T08:51:05.771Z,22.64
2022-10-07T08:52:06.100Z,22.61
2022-10-07T08:53:05.829Z,22.57
2022-10-07T08:54:05.860Z,22.61
2022-10-07T08:55:05.898Z,22.64
2022-10-07T08:56:05.924Z,22.64
2022-10-07T08:57:05.979Z,22.69
2022-10-07T08:58:05.983Z,22.67
2022-10-07T08:59:06.316Z,22.67
2022-10-07T09:00:06.047Z,22.72
2022-10-07T09:01:06.156Z,22.70
2022-10-07T09:02:06.108Z,22.72
2022-10-07T09:03:06.160Z,22.72
2022-10-07T09:04:06.185Z,22.72
2022-10-07T09:05:06.219Z,22.69
2022-10-07T09:06:06.533Z,22.69
2022-10-07T09:07:06.264Z,22.72
2022-10-07T09:08:06.301Z,22.76
2022-10-07T09:09:06.334Z,22.75
2022-10-07T09:10:06.356Z,22.67
2022-10-07T09:11:07.972Z,22.76
2022-10-07T09:12:06.421Z,22.60
2022-10-07T09:13:06.774Z,22.82
2022-10-07T09:14:06.485Z,22.63
2022-10-07T09:15:06.521Z,22.72
2022-10-07T09:16:06.605Z,22.74
2022-10-07T09:17:06.580Z,22.72
2022-10-07T09:18:06.609Z,22.72
2022-10-07T09:19:06.646Z,22.69
2022-10-07T09:20:06.978Z,22.81
2022-10-07T09:21:06.743Z,22.72
2022-10-07T09:22:06.749Z,22.75
2022-10-07T09:23:06.765Z,22.75
2022-10-07T09:24:06.794Z,22.75
2022-10-07T09:25:09.099Z,22.75
2022-10-07T09:26:06.864Z,22.82
2022-10-07T09:27:07.203Z,22.79
2022-10-07T09:28:06.977Z,22.79
2022-10-07T09:29:07.015Z,22.79
2022-10-07T09:30:06.986Z,22.81
2022-10-07T09:31:07.112Z,22.84
2022-10-07T09:32:07.045Z,22.89
2022-10-07T09:33:07.081Z,22.89
2022-10-07T09:34:07.412Z,22.84
2022-10-07T09:35:07.143Z,22.79
2022-10-07T09:36:07.281Z,22.89
2022-10-07T09:37:07.206Z,22.85
2022-10-07T09:39:07.270Z,22.85
2022-10-07T09:40:07.301Z,22.85
2022-10-07T09:41:07.628Z,22.85
2022-10-07T09:42:07.363Z,22.91
2022-10-07T09:43:07.395Z,22.93
2022-10-07T09:44:07.422Z,22.86
2022-10-07T09:45:07.473Z,22.91
2022-10-07T09:46:07.529Z,23.00
2022-10-07T09:47:07.519Z,22.99
2022-10-07T09:48:07.854Z,22.94
2022-10-07T09:49:07.576Z,22.94
2022-10-07T09:50:07.660Z,22.93
2022-10-07T09:51:07.640Z,23.00
2022-10-07T09:52:07.674Z,22.97
2022-10-07T09:53:07.706Z,22.96
2022-10-07T09:54:08.053Z,22.99
2022-10-07T09:55:07.770Z,22.99
2022-10-07T09:56:07.801Z,22.96
2022-10-07T09:57:07.835Z,22.97
2022-10-07T09:58:07.864Z,22.99
2022-10-07T09:59:07.894Z,22.97
2022-10-07T10:00:08.328Z,22.97
2022-10-07T10:01:07.975Z,22.96
2022-10-07T10:02:08.065Z,22.96
2022-10-07T10:03:08.114Z,22.96
2022-10-07T10:04:08.054Z,23.00
2022-10-07T10:05:08.091Z,23.01
2022-10-07T10:06:08.123Z,23.00
2022-10-07T10:07:08.145Z,23.01
2022-10-07T10:08:08.196Z,23.06
2022-10-07T10:09:08.209Z,23.00
2022-10-07T10:10:08.372Z,22.97
2022-10-07T10:11:08.270Z,23.01
2022-10-07T10:12:08.603Z,22.97
2022-10-07T10:13:08.337Z,23.00
2022-10-07T10:14:08.368Z,23.09
2022-10-07T10:15:08.396Z,22.99
2022-10-07T10:16:08.453Z,22.97
2022-10-07T10:17:08.484Z,22.97
2022-10-07T10:18:08.495Z,23.04
2022-10-07T10:20:08.562Z,23.07
2022-10-07T10:21:08.588Z,23.06
2022-10-07T10:22:08.621Z,23.11
2022-10-07T10:23:08.658Z,23.06
2022-10-07T10:24:08.681Z,23.01
2022-10-07T10:25:08.730Z,23.04
2022-10-07T10:26:09.044Z,23.04
2022-10-07T10:27:08.781Z,23.15
2022-10-07T10:28:08.865Z,23.16
2022-10-07T10:29:08.844Z,23.15
2022-10-07T10:30:08.871Z,23.12
2022-10-07T10:31:08.981Z,23.16
2022-10-07T10:32:08.934Z,23.14
2022-10-07T10:33:09.287Z,23.22
2022-10-07T10:34:08.998Z,23.14
2022-10-07T10:35:09.030Z,23.16
2022-10-07T10:36:09.059Z,23.19
2022-10-07T10:37:13.673Z,23.19
2022-10-07T10:38:09.122Z,23.18
2022-10-07T10:39:09.165Z,23.15
2022-10-07T10:40:09.492Z,23.21
2022-10-07T10:41:09.256Z,23.19
2022-10-07T10:42:09.249Z,23.16
2022-10-07T10:43:09.284Z,23.15
2022-10-07T10:44:09.338Z,23.19
2022-10-07T10:46:09.481Z,23.18
2022-10-07T10:47:09.705Z,23.22
2022-10-07T10:48:09.494Z,23.26
2022-10-07T10:49:09.498Z,23.16
2022-10-07T10:50:09.508Z,23.22
2022-10-07T10:51:09.534Z,23.18
2022-10-07T10:52:13.283Z,23.26
2022-10-07T10:53:09.601Z,23.23
2022-10-07T10:54:09.937Z,23.25
2022-10-07T10:55:09.669Z,23.25
2022-10-07T10:56:09.697Z,23.25
2022-10-07T10:57:09.734Z,23.26
2022-10-07T10:58:09.758Z,23.25
2022-10-07T10:59:09.790Z,23.26
2022-10-07T11:00:09.830Z,23.22
2022-10-07T11:01:10.170Z,23.21
2022-10-07T11:02:09.965Z,23.22
2022-10-07T11:03:10.009Z,23.32
2022-10-07T11:04:09.946Z,23.31
2022-10-07T11:05:10.704Z,23.25
2022-10-07T11:06:10.011Z,23.23
2022-10-07T11:07:10.043Z,23.31
2022-10-07T11:08:10.377Z,23.34
2022-10-07T11:09:10.113Z,23.26
2022-10-07T11:10:10.150Z,23.26
2022-10-07T11:11:10.173Z,23.32
2022-10-07T11:12:10.208Z,23.34
2022-10-07T11:13:10.257Z,23.38
2022-10-07T11:14:10.268Z,23.31
2022-10-07T11:15:10.608Z,23.32
2022-10-07T11:16:10.356Z,23.37
2022-10-07T11:17:10.368Z,23.32
2022-10-07T11:18:10.395Z,23.35
2022-10-07T11:19:10.427Z,23.22
2022-10-07T11:20:10.459Z,23.29
2022-10-07T11:21:10.820Z,23.38
2022-10-07T11:22:10.525Z,23.35
2022-10-07T11:23:10.556Z,23.37
2022-10-07T11:24:10.589Z,23.39
2022-10-07T11:25:10.621Z,23.39
2022-10-07T11:26:10.650Z,23.39
2022-10-07T11:27:10.986Z,23.44
2022-10-07T11:28:10.764Z,23.42
2022-10-07T11:29:10.749Z,23.44
2022-10-07T11:30:10.780Z,23.38
2022-10-07T11:31:10.875Z,23.45
2022-10-07T11:32:10.843Z,23.44
2022-10-07T11:33:11.190Z,23.44
2022-10-07T11:34:10.909Z,23.45
2022-10-07T11:35:10.944Z,23.41
2022-10-07T11:36:10.968Z,23.42
2022-10-07T11:37:11.032Z,23.47
2022-10-07T11:38:11.037Z,23.45
2022-10-07T11:39:11.070Z,23.49
2022-10-07T11:40:11.101Z,23.45
2022-10-07T11:41:11.130Z,23.45
2022-10-07T11:42:11.173Z,23.42
2022-10-07T11:43:11.195Z,23.44
2022-10-07T11:44:11.227Z,23.45
2022-10-07T11:45:11.260Z,23.44
2022-10-07T11:46:12.035Z,23.47
2022-10-07T11:47:11.421Z,23.47
2022-10-07T11:48:11.355Z,23.44
2022-10-07T11:49:11.393Z,23.47
2022-10-07T11:50:11.422Z,23.49
2022-10-07T11:51:11.463Z,23.44
2022-10-07T11:52:11.481Z,23.44
2022-10-07T11:53:11.836Z,23.42
2022-10-07T11:54:11.546Z,23.45
2022-10-07T11:55:11.578Z,23.45
2022-10-07T11:56:11.611Z,23.45
2022-10-07T11:57:11.648Z,23.49
2022-10-07T11:58:11.689Z,23.44
2022-10-07T11:59:11.722Z,23.54
2022-10-07T12:00:12.056Z,23.47
2022-10-07T12:01:11.775Z,23.49
2022-10-07T12:02:15.550Z,23.44
2022-10-07T12:03:11.889Z,23.49
2022-10-07T12:04:11.868Z,23.47
2022-10-07T12:05:11.900Z,23.50
2022-10-07T12:06:11.950Z,23.45
2022-10-07T12:07:12.265Z,23.57
2022-10-07T12:08:11.998Z,23.56
2022-10-07T12:10:12.076Z,23.42
2022-10-07T12:11:12.092Z,23.57
2022-10-07T12:12:12.125Z,23.56
2022-10-07T12:13:12.319Z,23.56
2022-10-07T12:14:12.262Z,23.53
2022-10-07T12:15:12.279Z,23.56
2022-10-07T12:16:12.311Z,23.59
2022-10-07T12:17:12.416Z,23.56
2022-10-07T12:18:12.406Z,23.59
2022-10-07T12:19:12.356Z,23.50
2022-10-07T12:20:12.685Z,23.52
2022-10-07T12:21:12.415Z,23.59
2022-10-07T12:22:12.448Z,23.59
2022-10-07T12:23:12.481Z,23.56
2022-10-07T12:24:12.516Z,23.57
2022-10-07T12:25:12.545Z,23.56
2022-10-07T12:26:12.948Z,23.54
2022-10-07T12:27:12.614Z,23.59
2022-10-07T12:28:12.672Z,23.56
2022-10-07T12:29:12.673Z,23.59
2022-10-07T12:30:12.707Z,23.59
2022-10-07T12:31:12.766Z,23.56
2022-10-07T12:32:13.071Z,23.60
2022-10-07T12:33:12.800Z,23.59
2022-10-07T12:34:12.832Z,23.56
2022-10-07T12:35:12.864Z,23.59
2022-10-07T12:36:12.901Z,23.60
2022-10-07T12:37:13.629Z,23.53
2022-10-07T12:38:13.266Z,23.56
2022-10-07T12:39:12.990Z,23.62
2022-10-07T12:40:13.041Z,23.59
2022-10-07T12:41:13.057Z,23.63
2022-10-07T12:42:13.106Z,23.56
2022-10-07T12:43:13.123Z,23.60
2022-10-07T12:44:13.258Z,23.57
2022-10-07T12:45:13.490Z,23.59
2022-10-07T12:46:13.316Z,23.57
2022-10-07T12:47:17.683Z,23.62
2022-10-07T12:48:13.284Z,23.59
2022-10-07T12:49:13.314Z,23.64
2022-10-07T12:50:13.448Z,23.63
2022-10-07T12:51:13.376Z,23.68
2022-10-07T12:52:13.715Z,23.59
2022-10-07T12:53:13.448Z,23.63
2022-10-07T12:54:13.477Z,23.60
2022-10-07T12:55:13.511Z,23.63
2022-10-07T12:56:13.548Z,23.63
2022-10-07T12:57:13.570Z,23.57
2022-10-07T12:58:13.622Z,23.63
2022-10-07T12:59:13.935Z,23.59
2022-10-07T13:00:13.755Z,23.68
2022-10-07T13:01:13.886Z,23.68
2022-10-07T13:02:13.934Z,23.64